Terminal Aerodrome Forecast
Issued by NWS

Home | Current Version | Previous Version | Text Only | Print | Product List | Glossary On
Versions: 1 2 3 4 5 6 7 8 9 10 11 12 13 14
965
FTUS46 KSEW 181732
TAFCLM
TAF
KCLM 181732Z 1818/1918 VRB03KT 4SM -RA BR FEW005 BKN060 OVC080
     FM182300 27005KT 4SM -RA BR OVC015
     FM190600 27007KT P6SM VCSH SCT030 BKN080=

USA.gov is the U.S. government's official web portal to all federal, state and local government web resources and services.